Terminal Aerodrome Forecast
Issued by NWS

Home | Current Version | Previous Version | Text Only | Print | Product List | Glossary Off
Versions: 1 2 3 4 5 6 7 8 9 10 11 12 13 14 15 16

000
FTUS43 KGRB 261100 AAA
TAFAUW
TAF AMD
KAUW 261112Z 2611/2706 23004KT 6SM BR OVC006
     FM261400 29008KT P6SM SCT005 SCT025=

USA.gov is the U.S. government's official web portal to all federal, state and local government web resources and services.